Spry, Pennsylvania
Current Conditions -  °F | °C
As of 6:53 PM on Monday 22 Dec 2014 (Local Time) from KTHV Reporting Station
Light Rain Light Rain  
Wind Chill: 33°   Ceiling: 1700
Heat Index: 33°   Visibility: 1.5mi
Dew Point: 31°   Wind: 3mph
Humidity: 92%   Direction: 270°W
Pressure: 30.16"   Gusts: NA
Location:  39.9768°N, 76.6853°W
Report Text: KTHV 222353Z AUTO 27003KT 1 1/2SM -RA BR BKN017 BKN027 OVC031 01/M01 A3016 RMK AO2 SLP223 P0004 60006 T00061006 10011 20000 57003
Loading
Personal Weather Stations






























Interactive Weather Map New forecast layout! Learn more

10-Day Weather Forecast

Advertisements
Track Severe Weather on mobile